sensor_id;sensor_type;location;lat;lon;timestamp;temperature;humidity
12152;DHT22;6139;51.274;7.128;2023-11-19T00:00:11;9.50;99.90
12152;DHT22;6139;51.274;7.128;2023-11-19T00:01:13;9.50;99.90
12152;DHT22;6139;51.274;7.128;2023-11-19T00:02:14;9.50;99.90
12152;DHT22;6139;51.274;7.128;2023-11-19T00:03:17;9.60;99.90
12152;DHT22;6139;51.274;7.128;2023-11-19T00:04:18;9.60;99.90
12152;DHT22;6139;51.274;7.128;2023-11-19T00:05:23;9.60;99.90
12152;DHT22;6139;51.274;7.128;2023-11-19T00:06:24;9.60;99.90
12152;DHT22;6139;51.274;7.128;2023-11-19T00:07:26;9.60;99.90
12152;DHT22;6139;51.274;7.128;2023-11-19T00:08:28;9.70;99.90
12152;DHT22;6139;51.274;7.128;2023-11-19T00:09:29;9.70;99.90
12152;DHT22;6139;51.274;7.128;2023-11-19T00:10:31;9.70;99.90
12152;DHT22;6139;51.274;7.128;2023-11-19T00:11:33;9.70;99.90
12152;DHT22;6139;51.274;7.128;2023-11-19T00:12:37;9.70;99.90
12152;DHT22;6139;51.274;7.128;2023-11-19T00:13:38;9.70;99.90
12152;DHT22;6139;51.274;7.128;2023-11-19T00:14:40;9.70;99.90
12152;DHT22;6139;51.274;7.128;2023-11-19T00:15:41;9.70;99.90
12152;DHT22;6139;51.274;7.128;2023-11-19T00:16:43;9.70;99.90
12152;DHT22;6139;51.274;7.128;2023-11-19T00:17:46;9.80;99.90
12152;DHT22;6139;51.274;7.128;2023-11-19T00:18:48;9.80;99.90
12152;DHT22;6139;51.274;7.128;2023-11-19T00:19:50;9.80;99.90
12152;DHT22;6139;51.274;7.128;2023-11-19T00:20:52;9.80;99.90
12152;DHT22;6139;51.274;7.128;2023-11-19T00:21:53;9.80;99.90
12152;DHT22;6139;51.274;7.128;2023-11-19T00:22:55;9.80;99.90
12152;DHT22;6139;51.274;7.128;2023-11-19T00:23:56;9.80;99.90
12152;DHT22;6139;51.274;7.128;2023-11-19T00:24:59;9.80;99.90
12152;DHT22;6139;51.274;7.128;2023-11-19T00:26:00;9.80;99.90
12152;DHT22;6139;51.274;7.128;2023-11-19T00:27:03;9.80;99.90
12152;DHT22;6139;51.274;7.128;2023-11-19T00:28:04;9.90;99.90
12152;DHT22;6139;51.274;7.128;2023-11-19T00:29:06;9.90;99.90
12152;DHT22;6139;51.274;7.128;2023-11-19T00:30:08;9.90;99.90
12152;DHT22;6139;51.274;7.128;2023-11-19T00:31:09;9.90;99.90
12152;DHT22;6139;51.274;7.128;2023-11-19T00:32:11;10.00;99.90
12152;DHT22;6139;51.274;7.128;2023-11-19T00:33:12;10.00;99.90
12152;DHT22;6139;51.274;7.128;2023-11-19T00:34:14;10.00;99.90
12152;DHT22;6139;51.274;7.128;2023-11-19T00:35:15;9.90;99.90
12152;DHT22;6139;51.274;7.128;2023-11-19T00:36:17;10.00;99.90
12152;DHT22;6139;51.274;7.128;2023-11-19T00:37:18;10.00;99.90
12152;DHT22;6139;51.274;7.128;2023-11-19T00:38:20;10.00;99.90
12152;DHT22;6139;51.274;7.128;2023-11-19T00:39:21;10.00;99.90
12152;DHT22;6139;51.274;7.128;2023-11-19T00:40:23;10.00;99.90
12152;DHT22;6139;51.274;7.128;2023-11-19T00:41:24;10.00;99.90
12152;DHT22;6139;51.274;7.128;2023-11-19T00:42:28;10.00;99.90
12152;DHT22;6139;51.274;7.128;2023-11-19T00:43:29;10.00;99.90
12152;DHT22;6139;51.274;7.128;2023-11-19T00:44:31;9.90;99.90
12152;DHT22;6139;51.274;7.128;2023-11-19T00:45:32;10.00;99.90
12152;DHT22;6139;51.274;7.128;2023-11-19T00:46:34;10.00;99.90
12152;DHT22;6139;51.274;7.128;2023-11-19T00:47:35;10.00;99.90
12152;DHT22;6139;51.274;7.128;2023-11-19T00:48:36;10.00;99.90
12152;DHT22;6139;51.274;7.128;2023-11-19T00:49:38;10.00;99.90
12152;DHT22;6139;51.274;7.128;2023-11-19T00:50:39;10.00;99.90
12152;DHT22;6139;51.274;7.128;2023-11-19T00:51:44;10.00;99.90
12152;DHT22;6139;51.274;7.128;2023-11-19T00:52:46;10.00;99.90
12152;DHT22;6139;51.274;7.128;2023-11-19T00:53:47;10.00;99.90
12152;DHT22;6139;51.274;7.128;2023-11-19T00:54:49;10.10;99.90
12152;DHT22;6139;51.274;7.128;2023-11-19T00:55:50;10.10;99.90
12152;DHT22;6139;51.274;7.128;2023-11-19T00:56:52;10.10;99.90
12152;DHT22;6139;51.274;7.128;2023-11-19T00:57:55;10.10;99.90
12152;DHT22;6139;51.274;7.128;2023-11-19T00:58:57;10.20;99.90
12152;DHT22;6139;51.274;7.128;2023-11-19T01:00:00;10.20;99.90
12152;DHT22;6139;51.274;7.128;2023-11-19T01:01:01;10.20;99.90
12152;DHT22;6139;51.274;7.128;2023-11-19T01:02:04;10.20;99.90
12152;DHT22;6139;51.274;7.128;2023-11-19T01:03:06;10.20;99.90
12152;DHT22;6139;51.274;7.128;2023-11-19T01:04:08;10.30;99.90
12152;DHT22;6139;51.274;7.128;2023-11-19T01:05:09;10.30;99.90
12152;DHT22;6139;51.274;7.128;2023-11-19T01:06:15;10.30;99.90
12152;DHT22;6139;51.274;7.128;2023-11-19T01:07:27;10.30;99.90
12152;DHT22;6139;51.274;7.128;2023-11-19T01:08:29;10.30;99.90
12152;DHT22;6139;51.274;7.128;2023-11-19T01:09:30;10.30;99.90
12152;DHT22;6139;51.274;7.128;2023-11-19T01:10:33;10.30;99.90
12152;DHT22;6139;51.274;7.128;2023-11-19T01:11:34;10.30;99.90
12152;DHT22;6139;51.274;7.128;2023-11-19T01:12:35;10.30;99.90
12152;DHT22;6139;51.274;7.128;2023-11-19T01:13:41;10.30;99.90
12152;DHT22;6139;51.274;7.128;2023-11-19T01:14:42;10.30;99.90
12152;DHT22;6139;51.274;7.128;2023-11-19T01:15:44;10.40;99.90
12152;DHT22;6139;51.274;7.128;2023-11-19T01:16:44;10.40;99.90
12152;DHT22;6139;51.274;7.128;2023-11-19T01:17:47;10.40;99.90
12152;DHT22;6139;51.274;7.128;2023-11-19T01:18:48;10.40;99.90
12152;DHT22;6139;51.274;7.128;2023-11-19T01:19:50;10.40;99.90
12152;DHT22;6139;51.274;7.128;2023-11-19T01:20:52;10.50;99.90
12152;DHT22;6139;51.274;7.128;2023-11-19T01:21:53;10.50;99.90
12152;DHT22;6139;51.274;7.128;2023-11-19T01:22:55;10.50;99.90
12152;DHT22;6139;51.274;7.128;2023-11-19T01:23:57;10.50;99.90
12152;DHT22;6139;51.274;7.128;2023-11-19T01:25:00;10.50;99.90
12152;DHT22;6139;51.274;7.128;2023-11-19T01:26:01;10.50;99.90
12152;DHT22;6139;51.274;7.128;2023-11-19T01:27:04;10.50;99.90
12152;DHT22;6139;51.274;7.128;2023-11-19T01:28:05;10.50;99.90
12152;DHT22;6139;51.274;7.128;2023-11-19T01:29:08;10.50;99.90
12152;DHT22;6139;51.274;7.128;2023-11-19T01:30:10;10.50;99.90
12152;DHT22;6139;51.274;7.128;2023-11-19T01:31:15;10.50;99.90
12152;DHT22;6139;51.274;7.128;2023-11-19T01:32:16;10.60;99.90
12152;DHT22;6139;51.274;7.128;2023-11-19T01:33:18;10.50;99.90
12152;DHT22;6139;51.274;7.128;2023-11-19T01:34:19;10.50;99.90
12152;DHT22;6139;51.274;7.128;2023-11-19T01:35:21;10.50;99.90
12152;DHT22;6139;51.274;7.128;2023-11-19T01:36:23;10.50;99.90
12152;DHT22;6139;51.274;7.128;2023-11-19T01:37:25;10.50;99.90
12152;DHT22;6139;51.274;7.128;2023-11-19T01:38:26;10.50;99.90
12152;DHT22;6139;51.274;7.128;2023-11-19T01:39:28;10.60;99.90
12152;DHT22;6139;51.274;7.128;2023-11-19T01:40:29;10.50;99.90
12152;DHT22;6139;51.274;7.128;2023-11-19T01:41:34;10.60;99.90
12152;DHT22;6139;51.274;7.128;2023-11-19T01:42:36;10.60;99.90
12152;DHT22;6139;51.274;7.128;2023-11-19T01:43:39;10.60;99.90
12152;DHT22;6139;51.274;7.128;2023-11-19T01:44:55;10.60;99.90
12152;DHT22;6139;51.274;7.128;2023-11-19T01:45:58;10.70;99.90
12152;DHT22;6139;51.274;7.128;2023-11-19T01:46:59;10.70;99.90
12152;DHT22;6139;51.274;7.128;2023-11-19T01:48:02;10.70;99.90
12152;DHT22;6139;51.274;7.128;2023-11-19T01:49:05;10.70;99.90
12152;DHT22;6139;51.274;7.128;2023-11-19T01:50:07;10.70;99.90
12152;DHT22;6139;51.274;7.128;2023-11-19T01:51:09;10.70;99.90
12152;DHT22;6139;51.274;7.128;2023-11-19T01:52:11;10.70;99.90
12152;DHT22;6139;51.274;7.128;2023-11-19T01:53:12;10.70;99.90
12152;DHT22;6139;51.274;7.128;2023-11-19T01:54:14;10.70;99.90
12152;DHT22;6139;51.274;7.128;2023-11-19T01:55:16;10.70;99.90
12152;DHT22;6139;51.274;7.128;2023-11-19T01:56:18;10.70;99.90
12152;DHT22;6139;51.274;7.128;2023-11-19T01:57:22;10.70;99.90
12152;DHT22;6139;51.274;7.128;2023-11-19T01:58:25;10.70;99.90
12152;DHT22;6139;51.274;7.128;2023-11-19T01:59:26;10.70;99.90
12152;DHT22;6139;51.274;7.128;2023-11-19T02:00:30;10.70;99.90
12152;DHT22;6139;51.274;7.128;2023-11-19T02:01:34;10.80;99.90
12152;DHT22;6139;51.274;7.128;2023-11-19T02:02:40;10.80;99.90
12152;DHT22;6139;51.274;7.128;2023-11-19T02:03:42;10.80;99.90
12152;DHT22;6139;51.274;7.128;2023-11-19T02:04:43;10.80;99.90
12152;DHT22;6139;51.274;7.128;2023-11-19T02:05:48;10.80;99.90
12152;DHT22;6139;51.274;7.128;2023-11-19T02:06:51;10.80;99.90
12152;DHT22;6139;51.274;7.128;2023-11-19T02:07:55;10.90;99.90
12152;DHT22;6139;51.274;7.128;2023-11-19T02:08:56;10.80;99.90
12152;DHT22;6139;51.274;7.128;2023-11-19T02:09:58;10.90;99.90
12152;DHT22;6139;51.274;7.128;2023-11-19T02:11:01;10.90;99.90
12152;DHT22;6139;51.274;7.128;2023-11-19T02:12:05;10.90;99.90
12152;DHT22;6139;51.274;7.128;2023-11-19T02:13:06;10.90;99.90
12152;DHT22;6139;51.274;7.128;2023-11-19T02:14:08;10.90;99.90
12152;DHT22;6139;51.274;7.128;2023-11-19T02:15:10;11.00;99.90
12152;DHT22;6139;51.274;7.128;2023-11-19T02:16:13;11.00;99.90
12152;DHT22;6139;51.274;7.128;2023-11-19T02:17:30;11.00;99.90
12152;DHT22;6139;51.274;7.128;2023-11-19T02:18:32;11.00;99.90
12152;DHT22;6139;51.274;7.128;2023-11-19T02:19:33;11.10;99.90
12152;DHT22;6139;51.274;7.128;2023-11-19T02:20:35;11.10;99.90
12152;DHT22;6139;51.274;7.128;2023-11-19T02:21:37;11.10;99.90
12152;DHT22;6139;51.274;7.128;2023-11-19T02:22:39;11.10;99.90
12152;DHT22;6139;51.274;7.128;2023-11-19T02:23:40;11.10;99.90
12152;DHT22;6139;51.274;7.128;2023-11-19T02:24:43;11.10;99.90
12152;DHT22;6139;51.274;7.128;2023-11-19T02:25:49;11.10;99.90
12152;DHT22;6139;51.274;7.128;2023-11-19T02:26:58;11.10;99.90
12152;DHT22;6139;51.274;7.128;2023-11-19T02:28:03;11.10;99.90
12152;DHT22;6139;51.274;7.128;2023-11-19T02:29:06;11.20;99.90
12152;DHT22;6139;51.274;7.128;2023-11-19T02:30:09;11.20;99.90
12152;DHT22;6139;51.274;7.128;2023-11-19T02:31:11;11.20;99.90
12152;DHT22;6139;51.274;7.128;2023-11-19T02:32:13;11.20;99.90
12152;DHT22;6139;51.274;7.128;2023-11-19T02:33:16;11.20;99.90
12152;DHT22;6139;51.274;7.128;2023-11-19T02:34:17;11.20;99.90
12152;DHT22;6139;51.274;7.128;2023-11-19T02:35:19;11.20;99.90
12152;DHT22;6139;51.274;7.128;2023-11-19T02:36:22;11.20;99.90
12152;DHT22;6139;51.274;7.128;2023-11-19T02:37:24;11.20;99.90
12152;DHT22;6139;51.274;7.128;2023-11-19T02:38:25;11.20;99.90
12152;DHT22;6139;51.274;7.128;2023-11-19T02:39:27;11.20;99.90
12152;DHT22;6139;51.274;7.128;2023-11-19T02:40:29;11.20;99.90
12152;DHT22;6139;51.274;7.128;2023-11-19T02:41:30;11.20;99.90
12152;DHT22;6139;51.274;7.128;2023-11-19T02:42:32;11.20;99.90
12152;DHT22;6139;51.274;7.128;2023-11-19T02:43:35;11.20;99.90
12152;DHT22;6139;51.274;7.128;2023-11-19T02:44:38;11.30;99.90
12152;DHT22;6139;51.274;7.128;2023-11-19T02:45:40;11.20;99.90
12152;DHT22;6139;51.274;7.128;2023-11-19T02:46:42;11.20;99.90
12152;DHT22;6139;51.274;7.128;2023-11-19T02:47:44;11.30;99.90
12152;DHT22;6139;51.274;7.128;2023-11-19T02:48:46;11.30;99.90
12152;DHT22;6139;51.274;7.128;2023-11-19T02:49:47;11.30;99.90
12152;DHT22;6139;51.274;7.128;2023-11-19T02:50:49;11.30;99.90
12152;DHT22;6139;51.274;7.128;2023-11-19T02:51:50;11.30;99.90
12152;DHT22;6139;51.274;7.128;2023-11-19T02:52:54;11.30;99.90
12152;DHT22;6139;51.274;7.128;2023-11-19T02:53:56;11.30;99.90
12152;DHT22;6139;51.274;7.128;2023-11-19T02:54:59;11.30;99.90
12152;DHT22;6139;51.274;7.128;2023-11-19T02:56:00;11.30;99.90
12152;DHT22;6139;51.274;7.128;2023-11-19T02:57:10;11.30;99.90
12152;DHT22;6139;51.274;7.128;2023-11-19T02:58:12;11.30;99.90
12152;DHT22;6139;51.274;7.128;2023-11-19T02:59:22;11.30;99.90
12152;DHT22;6139;51.274;7.128;2023-11-19T03:00:28;11.30;99.90
12152;DHT22;6139;51.274;7.128;2023-11-19T03:01:36;11.30;99.90
12152;DHT22;6139;51.274;7.128;2023-11-19T03:02:39;11.30;99.90
12152;DHT22;6139;51.274;7.128;2023-11-19T03:03:45;11.40;99.90
12152;DHT22;6139;51.274;7.128;2023-11-19T03:04:50;11.40;99.90
12152;DHT22;6139;51.274;7.128;2023-11-19T03:05:52;11.40;99.90
12152;DHT22;6139;51.274;7.128;2023-11-19T03:06:53;11.40;99.90
12152;DHT22;6139;51.274;7.128;2023-11-19T03:07:54;11.40;99.90
12152;DHT22;6139;51.274;7.128;2023-11-19T03:08:56;11.40;99.90
12152;DHT22;6139;51.274;7.128;2023-11-19T03:09:57;11.40;99.90
12152;DHT22;6139;51.274;7.128;2023-11-19T03:10:59;11.40;99.90
12152;DHT22;6139;51.274;7.128;2023-11-19T03:12:00;11.40;99.90
12152;DHT22;6139;51.274;7.128;2023-11-19T03:13:02;11.40;99.90
12152;DHT22;6139;51.274;7.128;2023-11-19T03:14:03;11.40;99.90
12152;DHT22;6139;51.274;7.128;2023-11-19T03:15:07;11.40;99.90
12152;DHT22;6139;51.274;7.128;2023-11-19T03:16:10;11.50;99.90
12152;DHT22;6139;51.274;7.128;2023-11-19T03:17:12;11.50;99.90
12152;DHT22;6139;51.274;7.128;2023-11-19T03:18:13;11.50;99.90
12152;DHT22;6139;51.274;7.128;2023-11-19T03:19:15;11.50;99.90
12152;DHT22;6139;51.274;7.128;2023-11-19T03:20:16;11.50;99.90
12152;DHT22;6139;51.274;7.128;2023-11-19T03:21:17;11.50;99.90
12152;DHT22;6139;51.274;7.128;2023-11-19T03:22:19;11.50;99.90
12152;DHT22;6139;51.274;7.128;2023-11-19T03:23:21;11.50;99.90
12152;DHT22;6139;51.274;7.128;2023-11-19T03:24:23;11.50;99.90
12152;DHT22;6139;51.274;7.128;2023-11-19T03:25:25;11.50;99.90
12152;DHT22;6139;51.274;7.128;2023-11-19T03:26:27;11.50;99.90
12152;DHT22;6139;51.274;7.128;2023-11-19T03:27:28;11.50;99.90
12152;DHT22;6139;51.274;7.128;2023-11-19T03:28:30;11.50;99.90
12152;DHT22;6139;51.274;7.128;2023-11-19T03:29:32;11.50;99.90
12152;DHT22;6139;51.274;7.128;2023-11-19T03:30:35;11.50;99.90
12152;DHT22;6139;51.274;7.128;2023-11-19T03:31:41;11.50;99.90
12152;DHT22;6139;51.274;7.128;2023-11-19T03:32:42;11.50;99.90
12152;DHT22;6139;51.274;7.128;2023-11-19T03:33:44;11.50;99.90
12152;DHT22;6139;51.274;7.128;2023-11-19T03:34:46;11.50;99.90
12152;DHT22;6139;51.274;7.128;2023-11-19T03:35:47;11.50;99.90
12152;DHT22;6139;51.274;7.128;2023-11-19T03:36:49;11.50;99.90
12152;DHT22;6139;51.274;7.128;2023-11-19T03:37:51;11.50;99.90
12152;DHT22;6139;51.274;7.128;2023-11-19T03:38:52;11.50;99.90
12152;DHT22;6139;51.274;7.128;2023-11-19T03:39:54;11.50;99.90
12152;DHT22;6139;51.274;7.128;2023-11-19T03:40:56;11.60;99.90
12152;DHT22;6139;51.274;7.128;2023-11-19T03:41:57;11.50;99.90
12152;DHT22;6139;51.274;7.128;2023-11-19T03:42:59;11.60;99.90
12152;DHT22;6139;51.274;7.128;2023-11-19T03:44:00;11.60;99.90
12152;DHT22;6139;51.274;7.128;2023-11-19T03:45:02;11.60;99.90
12152;DHT22;6139;51.274;7.128;2023-11-19T03:46:16;11.60;99.90
12152;DHT22;6139;51.274;7.128;2023-11-19T03:47:18;11.60;99.90
12152;DHT22;6139;51.274;7.128;2023-11-19T03:48:19;11.60;99.90
12152;DHT22;6139;51.274;7.128;2023-11-19T03:49:21;11.60;99.90
12152;DHT22;6139;51.274;7.128;2023-11-19T03:50:22;11.60;99.90
12152;DHT22;6139;51.274;7.128;2023-11-19T03:51:24;11.60;99.90
12152;DHT22;6139;51.274;7.128;2023-11-19T03:52:25;11.60;99.90
12152;DHT22;6139;51.274;7.128;2023-11-19T03:53:27;11.60;99.90
12152;DHT22;6139;51.274;7.128;2023-11-19T03:54:28;11.60;99.90
12152;DHT22;6139;51.274;7.128;2023-11-19T03:55:30;11.60;99.90
12152;DHT22;6139;51.274;7.128;2023-11-19T03:56:32;11.60;99.90
12152;DHT22;6139;51.274;7.128;2023-11-19T03:57:34;11.60;99.90
12152;DHT22;6139;51.274;7.128;2023-11-19T03:58:35;11.60;99.90
12152;DHT22;6139;51.274;7.128;2023-11-19T03:59:39;11.60;99.90
12152;DHT22;6139;51.274;7.128;2023-11-19T04:00:40;11.60;99.90
12152;DHT22;6139;51.274;7.128;2023-11-19T04:01:43;11.60;99.90
12152;DHT22;6139;51.274;7.128;2023-11-19T04:02:44;11.60;99.90
12152;DHT22;6139;51.274;7.128;2023-11-19T04:03:47;11.60;99.90
12152;DHT22;6139;51.274;7.128;2023-11-19T04:04:49;11.60;99.90
12152;DHT22;6139;51.274;7.128;2023-11-19T04:05:50;11.60;99.90
12152;DHT22;6139;51.274;7.128;2023-11-19T04:06:52;11.60;99.90
12152;DHT22;6139;51.274;7.128;2023-11-19T04:07:53;11.60;99.90
12152;DHT22;6139;51.274;7.128;2023-11-19T04:08:55;11.60;99.90
12152;DHT22;6139;51.274;7.128;2023-11-19T04:09:56;11.60;99.90
12152;DHT22;6139;51.274;7.128;2023-11-19T04:11:00;11.60;99.90
12152;DHT22;6139;51.274;7.128;2023-11-19T04:12:01;11.60;99.90
12152;DHT22;6139;51.274;7.128;2023-11-19T04:13:03;11.60;99.90
12152;DHT22;6139;51.274;7.128;2023-11-19T04:14:05;11.60;99.90
12152;DHT22;6139;51.274;7.128;2023-11-19T04:15:07;11.60;99.90
12152;DHT22;6139;51.274;7.128;2023-11-19T04:16:09;11.60;99.90
12152;DHT22;6139;51.274;7.128;2023-11-19T04:17:11;11.50;99.90
12152;DHT22;6139;51.274;7.128;2023-11-19T04:18:13;11.50;99.90
12152;DHT22;6139;51.274;7.128;2023-11-19T04:19:15;11.50;99.90
12152;DHT22;6139;51.274;7.128;2023-11-19T04:20:17;11.50;99.90
12152;DHT22;6139;51.274;7.128;2023-11-19T04:21:18;11.60;99.90
12152;DHT22;6139;51.274;7.128;2023-11-19T04:22:20;11.60;99.90
12152;DHT22;6139;51.274;7.128;2023-11-19T04:23:21;11.60;99.90
12152;DHT22;6139;51.274;7.128;2023-11-19T04:24:23;11.50;99.90
12152;DHT22;6139;51.274;7.128;2023-11-19T04:25:25;11.60;99.90
12152;DHT22;6139;51.274;7.128;2023-11-19T04:26:26;11.60;99.90
12152;DHT22;6139;51.274;7.128;2023-11-19T04:27:31;11.50;99.90
12152;DHT22;6139;51.274;7.128;2023-11-19T04:28:32;11.50;99.90
12152;DHT22;6139;51.274;7.128;2023-11-19T04:29:34;11.50;99.90
12152;DHT22;6139;51.274;7.128;2023-11-19T04:30:35;11.50;99.90
12152;DHT22;6139;51.274;7.128;2023-11-19T04:31:37;11.50;99.90
12152;DHT22;6139;51.274;7.128;2023-11-19T04:32:40;11.50;99.90
12152;DHT22;6139;51.274;7.128;2023-11-19T04:33:42;11.50;99.90
12152;DHT22;6139;51.274;7.128;2023-11-19T04:34:43;11.50;99.90
12152;DHT22;6139;51.274;7.128;2023-11-19T04:35:45;11.50;99.90
12152;DHT22;6139;51.274;7.128;2023-11-19T04:36:45;11.50;99.90
12152;DHT22;6139;51.274;7.128;2023-11-19T04:37:47;11.50;99.90
12152;DHT22;6139;51.274;7.128;2023-11-19T04:38:49;11.50;99.90
12152;DHT22;6139;51.274;7.128;2023-11-19T04:39:50;11.50;99.90
12152;DHT22;6139;51.274;7.128;2023-11-19T04:40:53;11.50;99.90
12152;DHT22;6139;51.274;7.128;2023-11-19T04:41:53;11.50;99.90
12152;DHT22;6139;51.274;7.128;2023-11-19T04:42:55;11.50;99.90
12152;DHT22;6139;51.274;7.128;2023-11-19T04:43:56;11.50;99.90
12152;DHT22;6139;51.274;7.128;2023-11-19T04:44:57;11.50;99.90
12152;DHT22;6139;51.274;7.128;2023-11-19T04:45:59;11.50;99.90
12152;DHT22;6139;51.274;7.128;2023-11-19T04:47:00;11.50;99.90
12152;DHT22;6139;51.274;7.128;2023-11-19T04:48:03;11.50;99.90
12152;DHT22;6139;51.274;7.128;2023-11-19T04:49:04;11.50;99.90
12152;DHT22;6139;51.274;7.128;2023-11-19T04:50:07;11.50;99.90
12152;DHT22;6139;51.274;7.128;2023-11-19T04:51:11;11.50;99.90
12152;DHT22;6139;51.274;7.128;2023-11-19T04:52:13;11.50;99.90
12152;DHT22;6139;51.274;7.128;2023-11-19T04:53:14;11.50;99.90
12152;DHT22;6139;51.274;7.128;2023-11-19T04:54:16;11.50;99.90
12152;DHT22;6139;51.274;7.128;2023-11-19T04:55:17;11.50;99.90
12152;DHT22;6139;51.274;7.128;2023-11-19T04:56:19;11.50;99.90
12152;DHT22;6139;51.274;7.128;2023-11-19T04:57:20;11.50;99.90
12152;DHT22;6139;51.274;7.128;2023-11-19T04:58:21;11.40;99.90
12152;DHT22;6139;51.274;7.128;2023-11-19T04:59:23;11.50;99.90
12152;DHT22;6139;51.274;7.128;2023-11-19T05:00:24;11.40;99.90
12152;DHT22;6139;51.274;7.128;2023-11-19T05:01:26;11.40;99.90
12152;DHT22;6139;51.274;7.128;2023-11-19T05:02:28;11.40;99.90
12152;DHT22;6139;51.274;7.128;2023-11-19T05:03:31;11.50;99.90
12152;DHT22;6139;51.274;7.128;2023-11-19T05:04:32;11.40;99.90
12152;DHT22;6139;51.274;7.128;2023-11-19T05:05:34;11.40;99.90
12152;DHT22;6139;51.274;7.128;2023-11-19T05:06:35;11.40;99.90
12152;DHT22;6139;51.274;7.128;2023-11-19T05:07:38;11.50;99.90
12152;DHT22;6139;51.274;7.128;2023-11-19T05:08:39;11.50;99.90
12152;DHT22;6139;51.274;7.128;2023-11-19T05:09:40;11.40;99.90
12152;DHT22;6139;51.274;7.128;2023-11-19T05:10:43;11.40;99.90
12152;DHT22;6139;51.274;7.128;2023-11-19T05:11:44;11.40;99.90
12152;DHT22;6139;51.274;7.128;2023-11-19T05:12:46;11.40;99.90
12152;DHT22;6139;51.274;7.128;2023-11-19T05:13:47;11.40;99.90
12152;DHT22;6139;51.274;7.128;2023-11-19T05:14:49;11.40;99.90
12152;DHT22;6139;51.274;7.128;2023-11-19T05:15:51;11.40;99.90
12152;DHT22;6139;51.274;7.128;2023-11-19T05:16:53;11.40;99.90
12152;DHT22;6139;51.274;7.128;2023-11-19T05:17:54;11.40;99.90
12152;DHT22;6139;51.274;7.128;2023-11-19T05:18:57;11.40;99.90
12152;DHT22;6139;51.274;7.128;2023-11-19T05:19:58;11.40;99.90
12152;DHT22;6139;51.274;7.128;2023-11-19T05:21:00;11.40;99.90
12152;DHT22;6139;51.274;7.128;2023-11-19T05:22:01;11.40;99.90
12152;DHT22;6139;51.274;7.128;2023-11-19T05:23:04;11.40;99.90
12152;DHT22;6139;51.274;7.128;2023-11-19T05:24:05;11.40;99.90
12152;DHT22;6139;51.274;7.128;2023-11-19T05:25:07;11.40;99.90
12152;DHT22;6139;51.274;7.128;2023-11-19T05:26:09;11.40;99.90
12152;DHT22;6139;51.274;7.128;2023-11-19T05:27:12;11.40;99.90
12152;DHT22;6139;51.274;7.128;2023-11-19T05:28:14;11.40;99.90
12152;DHT22;6139;51.274;7.128;2023-11-19T05:29:16;11.40;99.90
12152;DHT22;6139;51.274;7.128;2023-11-19T05:30:17;11.40;99.90
12152;DHT22;6139;51.274;7.128;2023-11-19T05:31:19;11.40;99.90
12152;DHT22;6139;51.274;7.128;2023-11-19T05:32:19;11.40;99.90
12152;DHT22;6139;51.274;7.128;2023-11-19T05:33:22;11.40;99.90
12152;DHT22;6139;51.274;7.128;2023-11-19T05:34:24;11.40;99.90
12152;DHT22;6139;51.274;7.128;2023-11-19T05:35:27;11.40;99.90
12152;DHT22;6139;51.274;7.128;2023-11-19T05:36:27;11.40;99.90
12152;DHT22;6139;51.274;7.128;2023-11-19T05:37:30;11.40;99.90
12152;DHT22;6139;51.274;7.128;2023-11-19T05:38:31;11.40;99.90
12152;DHT22;6139;51.274;7.128;2023-11-19T05:39:33;11.40;99.90
12152;DHT22;6139;51.274;7.128;2023-11-19T05:40:34;11.40;99.90
12152;DHT22;6139;51.274;7.128;2023-11-19T05:41:36;11.40;99.90
12152;DHT22;6139;51.274;7.128;2023-11-19T05:42:37;11.30;99.90
12152;DHT22;6139;51.274;7.128;2023-11-19T05:43:39;11.30;99.90
12152;DHT22;6139;51.274;7.128;2023-11-19T05:44:41;11.30;99.90
12152;DHT22;6139;51.274;7.128;2023-11-19T05:45:43;11.30;99.90
12152;DHT22;6139;51.274;7.128;2023-11-19T05:46:44;11.30;99.90
12152;DHT22;6139;51.274;7.128;2023-11-19T05:47:46;11.30;99.90
12152;DHT22;6139;51.274;7.128;2023-11-19T05:48:47;11.30;99.90
12152;DHT22;6139;51.274;7.128;2023-11-19T05:49:51;11.30;99.90
12152;DHT22;6139;51.274;7.128;2023-11-19T05:50:52;11.30;99.90
12152;DHT22;6139;51.274;7.128;2023-11-19T05:51:54;11.30;99.90
12152;DHT22;6139;51.274;7.128;2023-11-19T05:52:56;11.30;99.90
12152;DHT22;6139;51.274;7.128;2023-11-19T05:53:58;11.30;99.90
12152;DHT22;6139;51.274;7.128;2023-11-19T05:55:00;11.30;99.90
12152;DHT22;6139;51.274;7.128;2023-11-19T05:56:05;11.30;99.90
12152;DHT22;6139;51.274;7.128;2023-11-19T05:57:08;11.30;99.90
12152;DHT22;6139;51.274;7.128;2023-11-19T05:58:10;11.30;99.90
12152;DHT22;6139;51.274;7.128;2023-11-19T05:59:12;11.30;99.90
12152;DHT22;6139;51.274;7.128;2023-11-19T06:00:18;11.20;99.90
12152;DHT22;6139;51.274;7.128;2023-11-19T06:01:19;11.20;99.90
12152;DHT22;6139;51.274;7.128;2023-11-19T06:02:20;11.20;99.90
12152;DHT22;6139;51.274;7.128;2023-11-19T06:03:22;11.30;99.90
12152;DHT22;6139;51.274;7.128;2023-11-19T06:04:23;11.30;99.90
12152;DHT22;6139;51.274;7.128;2023-11-19T06:05:26;11.30;99.90
12152;DHT22;6139;51.274;7.128;2023-11-19T06:06:28;11.20;99.90
12152;DHT22;6139;51.274;7.128;2023-11-19T06:07:30;11.20;99.90
12152;DHT22;6139;51.274;7.128;2023-11-19T06:08:31;11.30;99.90
12152;DHT22;6139;51.274;7.128;2023-11-19T06:09:33;11.20;99.90
12152;DHT22;6139;51.274;7.128;2023-11-19T06:10:34;11.30;99.90
12152;DHT22;6139;51.274;7.128;2023-11-19T06:11:37;11.30;99.90
12152;DHT22;6139;51.274;7.128;2023-11-19T06:12:38;11.20;99.90
12152;DHT22;6139;51.274;7.128;2023-11-19T06:13:41;11.20;99.90
12152;DHT22;6139;51.274;7.128;2023-11-19T06:14:43;11.20;99.90
12152;DHT22;6139;51.274;7.128;2023-11-19T06:15:45;11.20;99.90
12152;DHT22;6139;51.274;7.128;2023-11-19T06:16:46;11.20;99.90
12152;DHT22;6139;51.274;7.128;2023-11-19T06:17:48;11.20;99.90
12152;DHT22;6139;51.274;7.128;2023-11-19T06:18:49;11.20;99.90
12152;DHT22;6139;51.274;7.128;2023-11-19T06:19:51;11.20;99.90
12152;DHT22;6139;51.274;7.128;2023-11-19T06:20:54;11.20;99.90
12152;DHT22;6139;51.274;7.128;2023-11-19T06:21:56;11.20;99.90
12152;DHT22;6139;51.274;7.128;2023-11-19T06:22:57;11.10;99.90
12152;DHT22;6139;51.274;7.128;2023-11-19T06:23:59;11.10;99.90
12152;DHT22;6139;51.274;7.128;2023-11-19T06:25:01;11.10;99.90
12152;DHT22;6139;51.274;7.128;2023-11-19T06:26:02;11.10;99.90
12152;DHT22;6139;51.274;7.128;2023-11-19T06:27:04;11.10;99.90
12152;DHT22;6139;51.274;7.128;2023-11-19T06:28:05;11.10;99.90
12152;DHT22;6139;51.274;7.128;2023-11-19T06:29:07;11.10;99.90
12152;DHT22;6139;51.274;7.128;2023-11-19T06:30:08;11.10;99.90
12152;DHT22;6139;51.274;7.128;2023-11-19T06:31:10;11.10;99.90
12152;DHT22;6139;51.274;7.128;2023-11-19T06:32:12;11.10;99.90
12152;DHT22;6139;51.274;7.128;2023-11-19T06:33:13;11.10;99.90
12152;DHT22;6139;51.274;7.128;2023-11-19T06:34:14;11.10;99.90
12152;DHT22;6139;51.274;7.128;2023-11-19T06:35:17;11.10;99.90
12152;DHT22;6139;51.274;7.128;2023-11-19T06:36:19;11.10;99.90
12152;DHT22;6139;51.274;7.128;2023-11-19T06:37:22;11.00;99.90
12152;DHT22;6139;51.274;7.128;2023-11-19T06:38:24;11.00;99.90
12152;DHT22;6139;51.274;7.128;2023-11-19T06:39:25;11.00;99.90